Time;durP1;ratioP1;P1;durP2;ratioP2;P2;SDS_P1;SDS_P2;PMS_P1;PMS_P2;Temp;Humidity;BMP_temperature;BMP_pressure;BME280_temperature;BME280_humidity;BME280_pressure;Samples;Min_cycle;Max_cycle;Signal;HPM_P1;HPM_P2
2021/08/18 00:01:48;;;;;;;0.05;0.05;;;;;;;19.23;68.34;101695.03;5028731;28;20435;-81
2021/08/18 00:04:15;;;;;;;0.20;0.20;;;;;;;19.27;68.27;101690.41;5013813;28;20120;-82
2021/08/18 00:06:41;;;;;;;0.10;0.10;;;;;;;19.25;68.16;101693.13;5013867;28;20022;-82
2021/08/18 00:09:08;;;;;;;0.20;0.20;;;;;;;19.32;68.01;101699.13;5014918;28;20105;-82
2021/08/18 00:11:34;;;;;;;0.10;0.10;;;;;;;19.18;68.23;101700.59;5015269;28;20485;-82
2021/08/18 00:14:00;;;;;;;0.10;0.10;;;;;;;19.25;68.33;101698.50;5014034;28;20061;-82
2021/08/18 00:16:27;;;;;;;0.10;0.10;;;;;;;19.31;68.00;101698.22;5014945;28;20103;-82
2021/08/18 00:18:54;;;;;;;0.10;0.10;;;;;;;19.27;68.15;101691.25;5016636;28;20042;-82
2021/08/18 00:21:23;;;;;;;0.00;0.00;;;;;;;19.30;68.01;101695.63;5013480;28;20026;-82
2021/08/18 00:23:53;;;;;;;0.10;0.10;;;;;;;19.21;68.26;101694.22;5014208;28;20044;-81
2021/08/18 00:26:26;;;;;;;0.43;0.43;;;;;;;19.28;68.03;101693.00;5012778;28;20164;-81
2021/08/18 00:28:56;;;;;;;0.10;0.10;;;;;;;19.37;67.81;101686.38;5013290;28;20085;-81
2021/08/18 00:31:23;;;;;;;0.10;0.10;;;;;;;19.29;67.88;101691.19;5014795;28;20041;-81
2021/08/18 00:33:50;;;;;;;0.10;0.10;;;;;;;19.13;68.17;101688.28;5013331;28;20033;-81
2021/08/18 00:36:19;;;;;;;0.10;0.10;;;;;;;19.23;68.02;101700.41;5013260;28;20508;-81
2021/08/18 00:38:46;;;;;;;0.10;0.10;;;;;;;19.25;68.04;101693.13;5013250;28;20026;-81
2021/08/18 00:41:13;;;;;;;0.10;0.10;;;;;;;19.32;67.75;101683.88;5013621;28;20034;-82
2021/08/18 00:43:40;;;;;;;0.10;0.10;;;;;;;19.33;67.68;101691.00;5013528;28;20026;-82
2021/08/18 00:46:08;;;;;;;0.20;0.20;;;;;;;19.39;67.58;101684.50;5013527;28;20037;-82
2021/08/18 00:48:37;;;;;;;0.10;0.10;;;;;;;19.33;67.79;101685.63;5013407;28;20144;-81
2021/08/18 00:51:04;;;;;;;0.08;0.08;;;;;;;19.37;67.74;101689.91;5012661;28;20069;-82
2021/08/18 00:53:30;;;;;;;0.00;0.00;;;;;;;19.40;67.69;101695.16;5012851;28;20025;-81
2021/08/18 00:55:57;;;;;;;0.10;0.10;;;;;;;19.34;67.88;101691.84;5013556;28;20026;-81
2021/08/18 00:58:24;;;;;;;0.98;0.57;;;;;;;19.35;67.77;101685.53;5013124;28;20049;-81
2021/08/18 01:00:51;;;;;;;0.10;0.10;;;;;;;19.36;67.83;101685.47;5013809;28;20057;-80
2021/08/18 01:03:17;;;;;;;0.10;0.10;;;;;;;19.37;67.71;101687.22;5013678;28;20054;-81
2021/08/18 01:05:44;;;;;;;0.10;0.10;;;;;;;19.34;67.91;101682.00;5012613;28;20057;-81
2021/08/18 01:08:11;;;;;;;0.10;0.10;;;;;;;19.28;68.19;101676.00;5013852;28;20530;-81
2021/08/18 01:10:37;;;;;;;0.30;0.30;;;;;;;19.19;68.47;101682.63;5013641;28;20071;-81
2021/08/18 01:13:05;;;;;;;0.10;0.10;;;;;;;19.19;68.35;101683.53;5013009;28;20022;-81
2021/08/18 01:15:33;;;;;;;0.40;0.40;;;;;;;19.20;68.34;101685.28;5013590;28;20072;-82
2021/08/18 01:18:02;;;;;;;0.10;0.10;;;;;;;19.15;68.82;101689.09;5011326;28;20400;-81
2021/08/18 01:20:36;;;;;;;0.10;0.10;;;;;;;19.14;68.90;101690.91;5013693;28;20022;-82
2021/08/18 01:23:05;;;;;;;0.10;0.10;;;;;;;19.30;68.33;101690.25;5013952;28;20580;-82
2021/08/18 01:25:31;;;;;;;0.00;0.00;;;;;;;19.22;68.44;101695.97;5018663;28;20029;-82
2021/08/18 01:28:01;;;;;;;0.05;0.05;;;;;;;19.38;67.78;101699.72;5012946;28;20034;-82
2021/08/18 01:30:30;;;;;;;0.10;0.10;;;;;;;19.30;68.01;101688.44;5024097;28;20056;-82
2021/08/18 01:33:00;;;;;;;0.00;0.00;;;;;;;19.37;67.79;101692.59;5013529;28;20026;-82
2021/08/18 01:35:30;;;;;;;0.20;0.20;;;;;;;19.31;67.94;101687.50;5023717;28;20038;-81
2021/08/18 01:37:57;;;;;;;0.20;0.20;;;;;;;19.39;67.72;101679.97;5023442;28;20472;-81
2021/08/18 01:40:24;;;;;;;0.10;0.10;;;;;;;19.34;67.82;101676.63;5023297;28;20166;-82
2021/08/18 01:42:52;;;;;;;0.10;0.10;;;;;;;19.42;67.63;101678.09;5021031;28;20026;-82
2021/08/18 01:48:09;;;;;;;0.10;0.10;;;;;;;19.30;68.12;101685.78;5076903;28;20174;-80
2021/08/18 01:50:37;;;;;;;0.10;0.10;;;;;;;19.37;67.86;101697.97;5067117;28;20033;-80
2021/08/18 01:53:04;;;;;;;0.00;0.00;;;;;;;19.40;67.82;101691.59;5057041;28;20033;-82
2021/08/18 01:55:30;;;;;;;0.20;0.20;;;;;;;19.37;67.88;101692.59;5048320;28;20029;-82
2021/08/18 01:57:58;;;;;;;0.10;0.10;;;;;;;19.35;68.10;101683.75;5050730;28;20520;-82
2021/08/18 02:00:27;;;;;;;0.00;0.00;;;;;;;19.38;68.00;101691.66;5046465;28;20064;-82
2021/08/18 02:02:55;;;;;;;0.10;0.10;;;;;;;19.39;67.98;101688.03;5030775;28;20037;-81
2021/08/18 02:05:22;;;;;;;0.10;0.10;;;;;;;19.19;68.82;101685.31;5031070;28;20087;-81
2021/08/18 02:07:49;;;;;;;0.10;0.10;;;;;;;19.21;68.51;101687.00;5030734;28;20129;-82
2021/08/18 02:10:17;;;;;;;0.10;0.10;;;;;;;19.20;68.81;101681.72;5030536;28;20473;-82
2021/08/18 02:12:44;;;;;;;0.10;0.10;;;;;;;19.18;68.78;101680.94;5030435;28;20056;-81
2021/08/18 02:15:14;;;;;;;0.03;0.03;;;;;;;19.19;68.61;101688.00;5030616;28;20035;-81
2021/08/18 02:17:41;;;;;;;0.10;0.10;;;;;;;19.15;68.70;101683.72;5031125;28;20404;-81
2021/08/18 02:20:11;;;;;;;0.10;0.10;;;;;;;19.06;69.04;101680.47;5030739;28;20034;-81
2021/08/18 02:22:38;;;;;;;0.10;0.10;;;;;;;19.07;68.82;101679.53;5030783;28;20021;-82
2021/08/18 02:25:06;;;;;;;0.10;0.10;;;;;;;19.11;68.61;101671.38;5030648;28;20065;-81
2021/08/18 02:27:32;;;;;;;0.20;0.20;;;;;;;19.07;69.16;101678.69;5030424;28;20037;-81
2021/08/18 02:29:59;;;;;;;0.10;0.10;;;;;;;19.07;68.87;101676.84;5030454;28;20029;-81
2021/08/18 02:32:25;;;;;;;0.10;0.10;;;;;;;19.09;68.71;101679.50;5030195;28;20033;-81
2021/08/18 02:34:52;;;;;;;0.10;0.10;;;;;;;19.07;69.06;101679.53;5030249;28;20121;-81
2021/08/18 02:37:18;;;;;;;0.10;0.10;;;;;;;19.05;69.16;101675.19;5030052;28;20105;-81
2021/08/18 02:39:44;;;;;;;0.10;0.10;;;;;;;19.10;68.85;101677.69;5029914;28;20097;-81
2021/08/18 02:42:11;;;;;;;0.10;0.10;;;;;;;19.12;68.87;101679.34;5030305;28;20030;-81
2021/08/18 02:44:37;;;;;;;0.05;0.05;;;;;;;19.15;69.02;101679.25;5044098;28;20026;-81
2021/08/18 02:47:04;;;;;;;0.10;0.10;;;;;;;19.18;68.95;101680.94;5049943;28;20041;-81
2021/08/18 02:49:30;;;;;;;0.10;0.10;;;;;;;19.20;68.90;101679.03;5050020;28;20492;-82
2021/08/18 02:51:57;;;;;;;0.10;0.10;;;;;;;19.22;68.64;101677.16;5049871;28;20034;-81
2021/08/18 02:54:25;;;;;;;0.20;0.20;;;;;;;19.24;68.72;101675.28;5049458;28;20040;-81
2021/08/18 02:56:52;;;;;;;0.20;0.20;;;;;;;19.23;68.70;101674.41;5049943;28;20413;-82
2021/08/18 02:59:19;;;;;;;0.00;0.00;;;;;;;19.25;68.63;101679.69;5036699;28;20057;-81
2021/08/18 03:01:47;;;;;;;0.30;0.30;;;;;;;19.25;68.79;101682.38;5036345;28;20105;-81
2021/08/18 03:04:13;;;;;;;0.10;0.10;;;;;;;19.25;68.88;101677.00;5048477;23;20049;-93
2021/08/18 03:06:40;;;;;;;0.10;0.10;;;;;;;19.24;68.73;101676.16;5036162;28;20029;-93
2021/08/18 03:09:06;;;;;;;0.10;0.10;;;;;;;19.24;68.73;101680.66;5035951;28;20451;-93
2021/08/18 03:11:32;;;;;;;0.10;0.10;;;;;;;19.24;68.77;101678.84;5035989;28;20033;-93
2021/08/18 03:13:59;;;;;;;0.43;0.28;;;;;;;19.24;68.79;101678.84;5052634;28;20029;-91
2021/08/18 03:16:25;;;;;;;0.00;0.00;;;;;;;19.24;68.71;101675.28;5055863;28;20029;-93
2021/08/18 03:18:54;;;;;;;0.00;0.00;;;;;;;19.23;68.74;101677.09;5056102;28;20039;-91
2021/08/18 03:21:20;;;;;;;0.10;0.10;;;;;;;19.22;68.89;101677.16;5055505;28;20035;-93
2021/08/18 03:23:47;;;;;;;0.10;0.10;;;;;;;19.23;68.72;101678.91;5055425;28;20033;-92
2021/08/18 03:26:14;;;;;;;0.10;0.10;;;;;;;19.23;68.84;101679.75;5055674;28;20460;-91
2021/08/18 03:28:40;;;;;;;0.00;0.00;;;;;;;19.24;68.61;101678.84;5055516;28;20475;-93
2021/08/18 03:31:07;;;;;;;0.10;0.10;;;;;;;19.24;68.80;101676.16;5055624;28;20029;-92
2021/08/18 03:33:33;;;;;;;0.10;0.10;;;;;;;19.25;68.74;101679.69;5055444;28;20029;-92
2021/08/18 03:35:59;;;;;;;0.08;0.08;;;;;;;19.26;68.81;101681.44;5055238;28;20037;-93
2021/08/18 03:38:25;;;;;;;0.20;0.20;;;;;;;19.27;68.84;101675.13;5055049;28;20028;-92
2021/08/18 03:40:54;;;;;;;0.45;0.45;;;;;;;19.27;68.90;101669.75;5055364;28;20029;-92
2021/08/18 03:43:21;;;;;;;0.10;0.10;;;;;;;19.26;68.76;101672.53;5055028;28;20033;-92
2021/08/18 03:45:48;;;;;;;0.10;0.10;;;;;;;19.26;68.88;101676.06;5055678;28;20039;-92
2021/08/18 03:48:14;;;;;;;0.10;0.10;;;;;;;19.24;68.74;101675.28;5055426;28;20033;-92
2021/08/18 03:50:40;;;;;;;0.10;0.10;;;;;;;19.25;68.85;101666.25;5054892;28;20025;-92
2021/08/18 03:53:07;;;;;;;0.10;0.10;;;;;;;19.25;68.90;101671.63;5055299;28;20041;-93
2021/08/18 03:55:33;;;;;;;0.10;0.10;;;;;;;19.24;68.78;101675.28;5054852;28;20152;-92
2021/08/18 03:57:59;;;;;;;0.10;0.10;;;;;;;19.23;68.84;101669.03;5054829;28;20503;-91
2021/08/18 04:00:25;;;;;;;0.10;0.10;;;;;;;19.21;68.69;101667.34;5054984;28;20510;-93
2021/08/18 04:02:52;;;;;;;0.10;0.10;;;;;;;19.20;68.72;101673.66;5055312;28;20045;-92
2021/08/18 04:05:18;;;;;;;0.10;0.10;;;;;;;19.19;68.66;101666.53;5054899;28;20048;-90
2021/08/18 04:07:44;;;;;;;0.13;0.13;;;;;;;19.16;68.48;101661.31;5054987;28;20060;-91
2021/08/18 04:10:11;;;;;;;0.10;0.10;;;;;;;19.13;68.73;101669.47;5053759;28;20495;-92
2021/08/18 04:15:39;;;;;;;0.57;0.57;;;;;;;19.07;68.67;101662.56;5106177;27;20358;-92
2021/08/18 04:18:07;;;;;;;0.10;0.10;;;;;;;19.07;68.66;101674.16;5091226;28;20025;-91
2021/08/18 04:20:34;;;;;;;0.10;0.10;;;;;;;19.06;68.65;101667.03;5091179;28;20032;-92
2021/08/18 04:23:01;;;;;;;0.10;0.10;;;;;;;19.02;68.82;101668.13;5106730;28;20024;-92
2021/08/18 04:25:27;;;;;;;0.10;0.10;;;;;;;19.02;68.71;101676.19;5111175;28;20028;-91
2021/08/18 04:27:54;;;;;;;0.10;0.10;;;;;;;18.99;68.55;101670.97;5085050;28;20387;-91
2021/08/18 04:30:21;;;;;;;0.10;0.10;;;;;;;18.97;68.72;101667.44;5070858;28;20029;-90
2021/08/18 04:32:47;;;;;;;0.10;0.10;;;;;;;18.94;68.86;101675.66;5071074;28;20032;-91
2021/08/18 04:35:15;;;;;;;0.10;0.10;;;;;;;18.93;68.73;101676.59;5084167;28;20380;-91
2021/08/18 04:37:41;;;;;;;0.10;0.10;;;;;;;18.91;68.66;101673.09;5093983;28;20031;-91
2021/08/18 04:40:13;;;;;;;0.00;0.00;;;;;;;18.89;68.74;101669.53;5110504;28;20045;-91
2021/08/18 04:42:41;;;;;;;0.10;0.10;;;;;;;18.86;68.65;101683.09;5099736;28;20089;-91
2021/08/18 04:45:10;;;;;;;0.17;0.17;;;;;;;18.82;68.55;101674.31;5089467;28;20036;-90
2021/08/18 04:47:37;;;;;;;0.10;0.10;;;;;;;18.78;68.68;101674.50;5090261;28;20031;-91
2021/08/18 04:50:05;;;;;;;0.00;0.00;;;;;;;18.78;68.58;101677.16;5090508;28;20270;-91
2021/08/18 04:52:31;;;;;;;0.00;0.00;;;;;;;18.74;68.87;101673.72;5101384;28;20024;-91
2021/08/18 04:54:58;;;;;;;0.40;0.40;;;;;;;18.72;69.04;101673.81;5110225;28;20390;-91
2021/08/18 04:57:24;;;;;;;0.10;0.10;;;;;;;18.72;68.95;101668.44;5091391;28;20060;-91
2021/08/18 04:59:50;;;;;;;0.10;0.10;;;;;;;18.75;69.13;101671.00;5084257;28;20481;-91
2021/08/18 05:02:16;;;;;;;0.10;0.10;;;;;;;18.80;69.08;101665.44;5080950;28;20082;-91
2021/08/18 05:04:49;;;;;;;0.10;0.10;;;;;;;18.88;69.02;101667.81;5082872;28;20028;-91
2021/08/18 05:07:18;;;;;;;0.90;0.35;;;;;;;18.90;69.00;101660.56;5088366;28;20025;-91
2021/08/18 05:09:44;;;;;;;0.10;0.10;;;;;;;18.95;68.96;101655.91;5088737;28;20028;-91
2021/08/18 05:12:10;;;;;;;0.10;0.10;;;;;;;18.99;68.86;101654.84;5088069;28;20024;-90
2021/08/18 05:14:55;;;;;;;0.03;0.03;;;;;;;19.14;68.84;101663.16;5085000;28;20036;-92
2021/08/18 05:17:28;;;;;;;0.10;0.10;;;;;;;19.11;68.98;101658.81;5079884;28;20032;-92
2021/08/18 05:19:55;;;;;;;0.22;0.22;;;;;;;19.13;68.95;101666.78;5068765;28;20032;-93
2021/08/18 05:22:39;;;;;;;0.25;0.25;;;;;;;19.19;69.12;101656.66;5068653;28;20025;-92
2021/08/18 05:25:07;;;;;;;0.10;0.10;;;;;;;19.20;69.14;101652.16;5065358;28;20037;-93
2021/08/18 05:27:34;;;;;;;0.00;0.00;;;;;;;19.24;69.01;101643.03;5055667;28;20079;-91
2021/08/18 05:30:16;;;;;;;0.03;0.03;;;;;;;19.34;69.04;101647.06;5055781;28;20033;-94
2021/08/18 05:32:43;;;;;;;0.10;0.10;;;;;;;19.32;69.08;101645.38;5056806;28;20046;-93
2021/08/18 05:35:13;;;;;;;0.10;0.10;;;;;;;19.35;69.16;101640.75;5070753;28;20358;-95
2021/08/18 05:37:42;;;;;;;0.65;0.63;;;;;;;19.38;68.93;101639.75;5060712;28;20064;-94
2021/08/18 05:40:09;;;;;;;0.10;0.10;;;;;;;19.39;69.00;101636.97;5055741;28;20021;-93
2021/08/18 05:42:36;;;;;;;0.10;0.10;;;;;;;19.43;69.01;101644.88;5058186;28;20428;-93
2021/08/18 05:45:02;;;;;;;0.10;0.10;;;;;;;19.44;68.89;101644.84;5073858;28;20562;-93
2021/08/18 05:47:31;;;;;;;0.80;0.65;;;;;;;19.50;68.96;101643.69;5078699;28;20485;-94
2021/08/18 05:49:57;;;;;;;0.10;0.10;;;;;;;19.49;69.00;101648.19;5076173;28;20037;-93
2021/08/18 05:52:24;;;;;;;0.10;0.10;;;;;;;19.50;69.04;101644.56;5067638;28;20045;-93
2021/08/18 05:54:50;;;;;;;0.10;0.10;;;;;;;19.53;68.79;101647.09;5062930;28;20036;-92
2021/08/18 05:57:16;;;;;;;0.10;0.10;;;;;;;19.58;68.86;101652.28;5056887;28;20540;-91
2021/08/18 05:59:43;;;;;;;0.10;0.10;;;;;;;19.59;68.72;101654.03;5059885;28;20017;-96
2021/08/18 06:02:18;;;;;;;0.03;0.03;;;;;;;19.68;68.57;101653.59;5066510;28;20051;-92
2021/08/18 06:04:45;;;;;;;0.15;0.15;;;;;;;19.66;68.78;101647.41;5055206;28;20379;-84
2021/08/18 06:07:11;;;;;;;0.00;0.00;;;;;;;19.68;68.80;101658.97;5060302;28;20025;-92
2021/08/18 06:09:37;;;;;;;0.10;0.10;;;;;;;19.69;68.72;101649.97;5057809;28;20079;-89
2021/08/18 06:14:33;;;;;;;0.10;0.10;;;;;;;19.74;68.48;101652.47;5197475;22;20049;-95
2021/08/18 06:16:59;;;;;;;0.10;0.10;;;;;;;19.76;68.61;101649.69;5022422;28;20022;-95
2021/08/18 06:20:17;;;;;;;;;;;;;;;;;;;;;
2021/08/18 06:23:22;;;;;;;;;;;;;;;;;;;;;
2021/08/18 06:34:25;;;;;;;0.22;0.22;;;;;;;19.93;68.14;101657.88;5329333;22;20097;-96
2021/08/18 06:39:42;;;;;;;0.10;0.10;;;;;;;20.00;68.03;101663.84;5587678;23;20029;-96
2021/08/18 06:42:10;;;;;;;0.43;0.43;;;;;;;19.97;68.28;101662.19;5046908;28;20429;-95
2021/08/18 06:45:22;;;;;;;;;;;;;;;;;;;;;
2021/08/18 06:47:59;;;;;;;0.10;0.10;;;;;;;20.21;67.80;101661.97;5012383;28;20029;-92
2021/08/18 06:51:19;;;;;;;;;;;;;;;;;;;;;
2021/08/18 06:53:52;;;;;;;0.10;0.10;;;;;;;20.31;67.51;101667.78;5019790;28;20576;-86
2021/08/18 06:58:52;;;;;;;0.10;0.10;;;;;;;20.27;67.95;101667.06;6113235;22;20016;-89
2021/08/18 07:01:29;;;;;;;;;;;;;;;20.40;67.67;101663.78;4994327;28;20026;-91
2021/08/18 07:03:55;;;;;;;0.10;0.10;;;;;;;20.28;68.03;101663.41;4978596;28;19937;-95
2021/08/18 07:06:21;;;;;;;1.73;1.00;;;;;;;20.35;67.78;101664.88;4975464;28;20038;-89
2021/08/18 07:08:47;;;;;;;0.10;0.10;;;;;;;20.38;67.77;101663.84;4972950;28;20027;-87
2021/08/18 07:11:13;;;;;;;0.10;0.10;;;;;;;20.57;67.35;101662.97;4973394;28;20105;-93
2021/08/18 07:13:40;;;;;;;0.10;0.10;;;;;;;20.66;67.17;101667.88;4974486;28;20379;-90
2021/08/18 07:16:08;;;;;;;0.28;0.28;;;;;;;20.69;67.39;101665.06;4974171;28;20085;-90
2021/08/18 07:18:34;;;;;;;0.20;0.20;;;;;;;20.68;67.32;101671.38;4974161;28;20035;-89
2021/08/18 07:21:00;;;;;;;0.00;0.00;;;;;;;20.59;67.62;101661.94;4975078;28;20027;-89
2021/08/18 07:23:26;;;;;;;0.10;0.10;;;;;;;20.62;67.53;101664.50;4974461;28;20038;-87
2021/08/18 07:25:52;;;;;;;0.20;0.20;;;;;;;20.54;67.44;101664.00;4974847;28;20054;-85
2021/08/18 07:28:18;;;;;;;0.30;0.30;;;;;;;20.66;67.24;101668.78;4979888;28;20069;-94
2021/08/18 07:30:44;;;;;;;0.45;0.45;;;;;;;20.65;67.13;101667.03;4992352;28;20052;-95
2021/08/18 07:33:11;;;;;;;0.28;0.28;;;;;;;20.62;66.31;101661.81;5012964;22;20029;-84
2021/08/18 07:35:37;;;;;;;0.10;0.10;;;;;;;20.78;66.77;101666.44;5033847;28;20040;-83
2021/08/18 07:38:04;;;;;;;0.10;0.10;;;;;;;20.85;66.83;101663.34;5033907;28;20116;-85
2021/08/18 07:40:30;;;;;;;0.13;0.13;;;;;;;20.75;66.67;101661.19;5034001;28;20376;-87
2021/08/18 07:42:56;;;;;;;0.10;0.10;;;;;;;20.83;66.14;101657.16;5027516;28;20026;-87
2021/08/18 07:45:23;;;;;;;0.13;0.13;;;;;;;20.80;66.39;101653.78;5014335;28;20105;-86
2021/08/18 07:47:49;;;;;;;0.20;0.20;;;;;;;20.91;65.62;101656.81;5014134;28;20037;-85
2021/08/18 07:50:15;;;;;;;0.10;0.10;;;;;;;20.92;65.92;101645.09;5014210;28;20456;-86
2021/08/18 07:52:41;;;;;;;0.40;0.40;;;;;;;21.04;66.05;101643.56;5013012;28;20424;-85
2021/08/18 07:55:08;;;;;;;0.15;0.15;;;;;;;21.11;65.97;101653.09;5014321;28;20030;-85
2021/08/18 07:57:35;;;;;;;0.10;0.10;;;;;;;21.15;65.98;101656.50;5014076;28;20034;-86
2021/08/18 08:00:05;;;;;;;0.10;0.10;;;;;;;21.19;65.61;101647.28;5014045;28;20022;-84
2021/08/18 08:02:32;;;;;;;0.10;0.10;;;;;;;21.16;65.97;101650.16;5014102;28;20049;-84
2021/08/18 08:04:58;;;;;;;0.10;0.10;;;;;;;21.27;65.24;101647.78;5013973;28;20552;-88
2021/08/18 08:07:25;;;;;;;0.85;0.85;;;;;;;21.16;65.86;101650.16;5014265;28;20121;-83
2021/08/18 08:09:51;;;;;;;0.10;0.10;;;;;;;21.14;64.89;101647.53;5013845;28;20069;-84
2021/08/18 08:12:17;;;;;;;0.13;0.13;;;;;;;21.23;65.46;101654.25;5014173;28;20033;-84
2021/08/18 08:14:43;;;;;;;0.10;0.10;;;;;;;21.29;65.05;101650.38;5013899;28;20387;-85
2021/08/18 08:17:09;;;;;;;0.10;0.10;;;;;;;21.45;65.49;101655.84;5013690;28;20030;-82
2021/08/18 08:19:35;;;;;;;0.40;0.38;;;;;;;21.52;65.27;101651.88;5013627;28;20025;-84
2021/08/18 08:22:01;;;;;;;0.10;0.10;;;;;;;21.46;65.21;101657.59;5013298;28;20484;-83
2021/08/18 08:24:28;;;;;;;0.75;0.63;;;;;;;;;;5013944;28;20157;-84
2021/08/18 08:26:54;;;;;;;0.10;0.10;;;;;;;21.80;63.90;101661.19;5013403;28;20041;-83
2021/08/18 08:29:20;;;;;;;0.15;0.15;;;;;;;21.88;64.19;101656.25;5013895;28;20030;-85
2021/08/18 08:31:46;;;;;;;0.17;0.17;;;;;;;21.89;63.46;101655.28;5013675;28;20026;-84
2021/08/18 08:34:13;;;;;;;0.03;0.03;;;;;;;21.91;63.23;101647.13;5013253;28;20061;-82
2021/08/18 08:36:40;;;;;;;0.38;0.38;;;;;;;22.03;63.51;101650.94;5015886;28;20033;-85
2021/08/18 08:39:07;;;;;;;14.73;0.73;;;;;;;22.00;63.65;101656.53;5014337;28;20024;-83
2021/08/18 08:41:33;;;;;;;0.13;0.13;;;;;;;21.95;63.33;101646.84;5013930;28;20544;-85
2021/08/18 08:43:59;;;;;;;0.55;0.55;;;;;;;21.90;63.58;101657.03;5013111;28;20401;-86
2021/08/18 08:46:36;;;;;;;0.10;0.10;;;;;;;21.73;62.98;101654.38;5013016;28;20376;-87
2021/08/18 08:49:03;;;;;;;0.10;0.10;;;;;;;21.80;63.48;101648.56;5012941;28;20030;-88
2021/08/18 08:51:32;;;;;;;0.20;0.20;;;;;;;21.71;63.97;101640.09;5011057;28;20026;-88
2021/08/18 08:53:58;;;;;;;0.10;0.10;;;;;;;21.67;63.36;101649.31;5006163;28;20092;-82
2021/08/18 08:56:33;;;;;;;2.38;0.40;;;;;;;21.56;63.69;101650.78;5013522;28;20100;-83
2021/08/18 08:59:00;;;;;;;0.40;0.40;;;;;;;21.53;64.15;101650.88;5011119;28;20465;-89
2021/08/18 09:01:26;;;;;;;0.10;0.10;;;;;;;21.39;64.32;101645.38;5015328;28;20026;-85
2021/08/18 09:03:52;;;;;;;0.52;0.52;;;;;;;21.43;64.03;101644.25;5016623;28;20053;-86
2021/08/18 09:06:21;;;;;;;0.10;0.10;;;;;;;21.33;64.28;101651.94;5016290;28;20038;-88
2021/08/18 09:08:49;;;;;;;0.10;0.10;;;;;;;21.20;64.50;101651.72;5017184;28;20037;-88
2021/08/18 09:11:19;;;;;;;0.25;0.25;;;;;;;21.11;64.63;101657.59;5016382;28;20117;-89
2021/08/18 09:13:50;;;;;;;0.80;0.55;;;;;;;21.25;64.66;101648.81;5016687;28;20362;-88
2021/08/18 09:16:19;;;;;;;0.40;0.40;;;;;;;21.24;64.56;101650.63;5004691;28;20037;-86
2021/08/18 09:21:48;;;;;;;0.45;0.45;;;;;;;21.41;64.24;101646.16;5074580;28;20434;-88
2021/08/18 09:27:08;;;;;;;0.50;0.50;;;;;;;21.59;63.85;101645.19;5081682;27;20429;-84
2021/08/18 09:35:03;;;;;;;0.22;0.22;;;;;;;21.85;63.24;101637.53;5091394;27;20413;-86
2021/08/18 09:37:31;;;;;;;0.30;0.30;;;;;;;21.76;63.16;101641.59;5071013;28;20499;-85
2021/08/18 09:39:58;;;;;;;0.52;0.52;;;;;;;21.81;63.02;101638.66;5070039;28;20434;-84
2021/08/18 09:42:29;;;;;;;0.30;0.30;;;;;;;21.91;62.37;101647.13;5068381;28;20028;-86
2021/08/18 09:45:32;;;;;;;0.13;0.13;;;;;;;22.00;62.10;101640.34;5055593;28;20111;-87
2021/08/18 09:48:05;;;;;;;0.43;0.43;;;;;;;21.95;61.57;101644.16;5055629;28;20036;-88
2021/08/18 09:50:53;;;;;;;0.55;0.38;;;;;;;21.95;60.98;101627.97;5053106;28;20045;-85
2021/08/18 09:56:04;;;;;;;0.15;0.15;;;;;;;21.97;60.47;101634.16;5090229;28;20408;-86
2021/08/18 09:58:41;;;;;;;0.22;0.22;;;;;;;22.06;59.70;101659.75;5066865;28;20087;-84
2021/08/18 10:01:11;;;;;;;0.60;0.60;;;;;;;21.97;59.20;101626.06;5051000;28;20029;-88
2021/08/18 10:03:39;;;;;;;1.05;1.05;;;;;;;22.11;60.18;101633.38;5036138;28;20108;-87
2021/08/18 10:06:08;;;;;;;0.10;0.10;;;;;;;22.20;60.23;101629.28;5033001;28;20029;-87
2021/08/18 10:08:37;;;;;;;0.20;0.20;;;;;;;21.94;59.44;101642.44;5031428;28;20025;-87
2021/08/18 10:11:05;;;;;;;0.30;0.30;;;;;;;22.00;58.69;101634.94;5030749;28;20057;-88
2021/08/18 10:13:31;;;;;;;4.43;0.82;;;;;;;22.16;58.85;101625.03;5019926;28;20030;-88
2021/08/18 10:15:58;;;;;;;0.63;0.63;;;;;;;22.12;58.18;101629.72;5012316;28;20126;-87
2021/08/18 10:18:41;;;;;;;0.10;0.10;;;;;;;22.48;58.22;101619.66;5011082;28;20088;-86
2021/08/18 10:21:29;;;;;;;0.10;0.10;;;;;;;22.40;58.03;101621.91;5009617;28;20033;-86
2021/08/18 10:23:59;;;;;;;0.32;0.32;;;;;;;22.29;58.13;101617.09;5026561;28;20446;-85
2021/08/18 10:29:16;;;;;;;0.10;0.10;;;;;;;22.26;57.74;101620.84;5073448;27;20414;-83
2021/08/18 10:37:24;;;;;;;0.10;0.10;;;;;;;22.69;56.85;101622.03;5117851;27;20795;-84
2021/08/18 10:39:53;;;;;;;0.10;0.10;;;;;;;22.48;55.90;101622.34;5073786;28;20451;-82
2021/08/18 10:42:37;;;;;;;0.10;0.10;;;;;;;22.80;56.12;101624.97;5078909;28;20051;-84
2021/08/18 10:45:26;;;;;;;0.10;0.10;;;;;;;22.72;55.84;101624.56;5091144;28;20025;-85
2021/08/18 10:47:53;;;;;;;0.10;0.10;;;;;;;23.04;56.01;101614.53;5050929;28;20484;-85
2021/08/18 10:53:02;;;;;;;0.10;0.10;;;;;;;22.75;55.31;101611.75;5100579;27;20409;-86
2021/08/18 10:55:31;;;;;;;0.98;0.75;;;;;;;22.87;55.57;101610.16;5091004;28;20040;-86
2021/08/18 10:58:05;;;;;;;0.10;0.10;;;;;;;23.22;55.67;101609.00;5090736;28;20475;-85
2021/08/18 11:00:37;;;;;;;0.88;0.88;;;;;;;23.18;55.77;101616.44;5089990;28;20029;-86
2021/08/18 11:05:49;;;;;;;0.22;0.22;;;;;;;23.36;55.18;101603.59;5082036;27;20437;-83
2021/08/18 11:08:18;;;;;;;0.10;0.10;;;;;;;23.32;54.77;101609.31;5067707;28;20112;-85
2021/08/18 11:13:51;;;;;;;1.63;1.52;;;;;;;23.64;53.31;101599.19;5102937;27;20724;-87
2021/08/18 11:19:06;;;;;;;0.10;0.10;;;;;;;23.73;53.17;101604.00;5123783;27;20410;-83
2021/08/18 11:21:35;;;;;;;0.40;0.40;;;;;;;23.80;52.17;101604.50;5086714;28;20166;-84
2021/08/18 11:26:53;;;;;;;0.47;0.47;;;;;;;23.58;51.03;101605.84;5090979;27;20785;-85
2021/08/18 11:29:20;;;;;;;0.10;0.10;;;;;;;23.44;51.86;101603.16;5071080;28;20047;-82
2021/08/18 11:31:49;;;;;;;0.10;0.10;;;;;;;23.56;52.24;101607.78;5070893;28;20075;-88
2021/08/18 11:34:35;;;;;;;0.10;0.10;;;;;;;23.94;51.98;101600.91;5052042;28;20071;-87
2021/08/18 11:39:46;;;;;;;0.75;0.75;;;;;;;24.08;50.78;101613.56;5081383;27;20419;-85
2021/08/18 11:45:18;;;;;;;0.15;0.15;;;;;;;24.12;49.74;101604.25;5078212;28;20862;-85
2021/08/18 11:47:46;;;;;;;0.15;0.15;;;;;;;24.14;49.94;101613.16;5066184;28;20090;-86
2021/08/18 11:50:14;;;;;;;0.22;0.22;;;;;;;24.13;50.55;101597.88;5067836;28;20086;-85
2021/08/18 11:52:40;;;;;;;0.17;0.17;;;;;;;24.16;49.98;101600.41;5050032;28;20091;-85
2021/08/18 11:55:07;;;;;;;1.20;0.90;;;;;;;24.29;49.63;101597.72;5050341;28;20033;-86
2021/08/18 11:57:33;;;;;;;0.10;0.10;;;;;;;24.37;49.03;101597.22;5040710;28;20021;-86
2021/08/18 12:00:03;;;;;;;3.70;1.75;;;;;;;24.31;47.51;101595.81;5049225;28;20099;-86
2021/08/18 12:02:30;;;;;;;0.82;0.82;;;;;;;24.47;48.37;101590.22;5040429;28;20052;-86
2021/08/18 12:04:58;;;;;;;0.10;0.10;;;;;;;24.51;47.99;101589.06;5036333;28;20025;-86
2021/08/18 12:07:29;;;;;;;0.20;0.20;;;;;;;24.57;48.55;101576.91;5037673;28;20080;-86
2021/08/18 12:10:21;;;;;;;0.10;0.10;;;;;;;24.25;47.47;101590.78;5032285;28;20029;-86
2021/08/18 12:13:02;;;;;;;0.05;0.05;;;;;;;24.46;47.63;101580.38;5042975;28;20029;-86
2021/08/18 12:15:34;;;;;;;0.10;0.10;;;;;;;24.11;48.01;101586.25;5044803;28;20021;-85
2021/08/18 12:18:00;;;;;;;0.17;0.17;;;;;;;24.19;46.99;101583.94;5038848;28;20026;-86
2021/08/18 12:20:30;;;;;;;0.10;0.10;;;;;;;24.34;47.43;101573.91;5035575;28;20030;-86
2021/08/18 12:22:58;;;;;;;0.20;0.20;;;;;;;24.18;48.05;101584.03;5038752;28;20036;-85
2021/08/18 12:25:33;;;;;;;0.30;0.30;;;;;;;24.31;48.36;101581.38;5034277;28;20567;-84
2021/08/18 12:28:19;;;;;;;0.25;0.25;;;;;;;23.65;48.20;101583.81;5030611;28;20053;-86
2021/08/18 12:31:05;;;;;;;0.10;0.10;;;;;;;23.39;48.38;101589.00;5050145;28;20021;-84
2021/08/18 12:33:32;;;;;;;0.47;0.47;;;;;;;23.21;49.58;101585.63;5040053;28;20656;-85
2021/08/18 12:36:14;;;;;;;0.20;0.20;;;;;;;22.98;50.50;101595.09;5039375;28;20049;-85
2021/08/18 12:38:55;;;;;;;0.20;0.20;;;;;;;22.59;51.57;101590.19;5041606;28;20072;-86
2021/08/18 12:41:27;;;;;;;0.45;0.45;;;;;;;22.24;52.18;101593.09;5039087;28;20056;-86
2021/08/18 12:44:14;;;;;;;0.38;0.38;;;;;;;22.08;52.91;101600.28;5034990;28;20076;-84
2021/08/18 12:46:42;;;;;;;0.40;0.38;;;;;;;22.27;52.60;101610.94;5030370;28;20384;-86